createdAt,value
2022-11-02T00:02:22.686Z,1.33
2022-11-02T00:04:49.510Z,1.77
2022-11-02T00:07:15.866Z,1.25
2022-11-02T00:09:42.224Z,1.65
2022-11-02T00:12:08.655Z,1.83
2022-11-02T00:14:35.067Z,1.52
2022-11-02T00:17:01.545Z,1.88
2022-11-02T00:19:28.926Z,1.25
2022-11-02T00:21:56.862Z,1.33
2022-11-02T00:24:23.250Z,1.40
2022-11-02T00:26:49.668Z,1.10
2022-11-02T00:29:16.513Z,1.30
2022-11-02T00:31:42.855Z,1.17
2022-11-02T00:34:09.235Z,1.30
2022-11-02T00:36:35.632Z,1.20
2022-11-02T00:39:01.968Z,0.90
2022-11-02T00:41:28.334Z,1.38
2022-11-02T00:43:54.969Z,1.15
2022-11-02T00:46:21.333Z,1.15
2022-11-02T00:48:47.801Z,1.15
2022-11-02T00:51:14.520Z,1.10
2022-11-02T00:53:42.472Z,0.88
2022-11-02T00:56:08.814Z,1.20
2022-11-02T00:58:35.665Z,1.20
2022-11-02T01:01:06.270Z,1.00
2022-11-02T01:03:32.762Z,0.90
2022-11-02T01:05:59.121Z,0.82
2022-11-02T01:08:25.521Z,1.08
2022-11-02T01:10:51.835Z,1.17
2022-11-02T01:13:18.207Z,1.13
2022-11-02T01:15:44.515Z,0.85
2022-11-02T01:18:10.882Z,1.20
2022-11-02T01:20:37.301Z,1.55
2022-11-02T01:23:03.832Z,1.40
2022-11-02T01:25:30.235Z,1.13
2022-11-02T01:27:56.659Z,1.17
2022-11-02T01:30:23.013Z,0.82
2022-11-02T01:32:49.442Z,1.00
2022-11-02T01:35:16.738Z,1.05
2022-11-02T01:37:43.258Z,1.10
2022-11-02T01:40:09.928Z,1.30
2022-11-02T01:42:36.413Z,1.25
2022-11-02T01:45:02.861Z,1.20
2022-11-02T01:47:31.382Z,0.93
2022-11-02T01:50:02.364Z,1.05
2022-11-02T01:52:34.306Z,0.80
2022-11-02T01:55:06.873Z,1.30
2022-11-02T01:57:33.716Z,1.00
2022-11-02T02:00:04.496Z,1.20
2022-11-02T02:02:43.411Z,1.10
2022-11-02T02:05:10.878Z,0.80
2022-11-02T02:07:38.838Z,1.00
2022-11-02T02:10:06.073Z,1.17
2022-11-02T02:12:34.666Z,0.60
2022-11-02T02:15:01.151Z,1.00
2022-11-02T02:17:37.977Z,0.88
2022-11-02T02:20:04.970Z,0.75
2022-11-02T02:22:53.235Z,0.70
2022-11-02T02:25:26.165Z,0.68
2022-11-02T02:28:02.679Z,0.90
2022-11-02T02:30:30.930Z,0.75
2022-11-02T02:32:59.484Z,1.00
2022-11-02T02:35:33.537Z,1.02
2022-11-02T02:38:04.827Z,0.70
2022-11-02T02:40:35.093Z,0.52
2022-11-02T02:43:05.406Z,0.98
2022-11-02T02:45:52.069Z,0.90
2022-11-02T02:48:20.070Z,0.70
2022-11-02T02:50:50.970Z,0.80
2022-11-02T02:53:41.864Z,0.60
2022-11-02T02:56:10.155Z,0.50
2022-11-02T02:58:38.775Z,0.70
2022-11-02T03:01:06.175Z,0.55
2022-11-02T03:03:35.323Z,0.63
2022-11-02T03:06:03.990Z,0.60
2022-11-02T03:08:31.759Z,0.90
2022-11-02T03:11:01.286Z,0.60
2022-11-02T03:13:35.342Z,0.70
2022-11-02T03:16:25.915Z,0.77
2022-11-02T03:18:57.213Z,0.57
2022-11-02T03:21:26.757Z,0.60
2022-11-02T03:24:00.441Z,0.55
2022-11-02T03:26:37.646Z,0.73
2022-11-02T03:29:08.627Z,0.50
2022-11-02T03:31:40.428Z,0.60
2022-11-02T03:34:11.477Z,0.88
2022-11-02T03:36:45.713Z,0.63
2022-11-02T03:39:13.715Z,0.85
2022-11-02T03:41:42.448Z,0.63
2022-11-02T03:44:11.779Z,0.70
2022-11-02T03:46:40.085Z,0.82
2022-11-02T03:49:10.365Z,0.50
2022-11-02T03:54:10.553Z,0.70
2022-11-02T03:56:40.138Z,0.75
2022-11-02T03:59:07.785Z,0.63
2022-11-02T04:01:39.294Z,0.75
2022-11-02T04:04:05.996Z,0.75
2022-11-02T04:06:33.235Z,0.55
2022-11-02T04:09:00.192Z,0.60
2022-11-02T04:11:45.533Z,0.70
2022-11-02T04:14:32.475Z,0.50
2022-11-02T04:17:19.028Z,0.68
2022-11-02T04:19:49.900Z,0.63
2022-11-02T04:22:35.842Z,0.60
2022-11-02T04:25:18.284Z,0.67
2022-11-02T04:28:06.859Z,0.70
2022-11-02T04:30:35.284Z,0.70
2022-11-02T04:33:21.113Z,0.70
2022-11-02T04:35:53.160Z,1.02
2022-11-02T04:38:39.313Z,0.70
2022-11-02T04:41:30.047Z,0.57
2022-11-02T04:43:57.774Z,0.43
2022-11-02T04:46:25.243Z,0.60
2022-11-02T04:48:51.889Z,0.55
2022-11-02T04:51:20.698Z,0.70
2022-11-02T04:53:48.084Z,0.55
2022-11-02T04:56:15.395Z,0.90
2022-11-02T04:58:42.458Z,0.80
2022-11-02T05:01:11.809Z,0.55
2022-11-02T05:03:38.391Z,0.63
2022-11-02T05:06:05.299Z,0.82
2022-11-02T05:08:31.960Z,0.73
2022-11-02T05:10:59.499Z,0.85
2022-11-02T05:13:27.444Z,0.90
2022-11-02T05:15:57.409Z,0.70
2022-11-02T05:18:24.394Z,0.68
2022-11-02T05:20:52.090Z,0.80
2022-11-02T05:23:20.200Z,0.60
2022-11-02T05:25:56.804Z,0.63
2022-11-02T05:28:24.535Z,0.80
2022-11-02T05:30:50.971Z,0.50
2022-11-02T05:33:17.408Z,0.40
2022-11-02T05:35:43.883Z,0.65
2022-11-02T05:38:11.105Z,0.57
2022-11-02T05:40:40.467Z,0.50
2022-11-02T05:43:09.400Z,0.70
2022-11-02T05:45:37.042Z,0.40
2022-11-02T05:48:04.111Z,0.60
2022-11-02T05:50:30.723Z,0.60
2022-11-02T05:52:58.847Z,0.70
2022-11-02T05:55:25.160Z,0.50
2022-11-02T05:57:52.881Z,0.82
2022-11-02T06:00:19.842Z,0.40
2022-11-02T06:02:46.393Z,1.10
2022-11-02T06:05:12.860Z,0.68
2022-11-02T06:07:39.270Z,0.55
2022-11-02T06:10:06.196Z,0.50
2022-11-02T06:12:32.990Z,0.70
2022-11-02T06:14:59.317Z,0.85
2022-11-02T06:17:25.716Z,0.50
2022-11-02T06:19:52.214Z,0.80
2022-11-02T06:22:18.550Z,0.55
2022-11-02T06:24:44.941Z,0.38
2022-11-02T06:27:11.370Z,0.57
2022-11-02T06:29:38.014Z,0.40
2022-11-02T06:32:04.507Z,0.50
2022-11-02T06:34:30.836Z,0.50
2022-11-02T06:36:57.215Z,0.38
2022-11-02T06:39:24.793Z,0.50
2022-11-02T06:41:51.255Z,0.75
2022-11-02T06:44:18.055Z,0.40
2022-11-02T06:46:44.427Z,0.65
2022-11-02T06:49:10.799Z,0.65
2022-11-02T06:51:37.388Z,0.50
2022-11-02T06:54:08.479Z,1.35
2022-11-02T06:56:35.213Z,0.50
2022-11-02T06:59:01.776Z,0.40
2022-11-02T07:01:28.321Z,0.30
2022-11-02T07:03:54.895Z,0.73
2022-11-02T07:06:21.281Z,0.45
2022-11-02T07:08:47.778Z,0.68
2022-11-02T07:11:15.191Z,0.50
2022-11-02T07:13:41.759Z,0.95
2022-11-02T07:16:08.308Z,0.70
2022-11-02T07:18:34.713Z,0.82
2022-11-02T07:21:01.854Z,0.77
2022-11-02T07:23:28.740Z,0.60
2022-11-02T07:25:55.150Z,0.73
2022-11-02T07:28:21.489Z,0.40
2022-11-02T07:30:47.974Z,0.50
2022-11-02T07:33:14.405Z,0.60
2022-11-02T07:35:41.227Z,0.50
2022-11-02T07:38:07.917Z,0.70
2022-11-02T07:40:35.480Z,0.60
2022-11-02T07:43:02.259Z,0.60
2022-11-02T07:45:49.177Z,0.65
2022-11-02T07:48:15.548Z,0.70
2022-11-02T07:50:41.907Z,0.30
2022-11-02T07:53:09.288Z,0.30
2022-11-02T07:55:35.613Z,0.30
2022-11-02T07:58:07.900Z,0.38
2022-11-02T08:00:38.906Z,0.40
2022-11-02T08:03:06.901Z,0.50
2022-11-02T08:05:34.511Z,0.38
2022-11-02T08:08:02.182Z,1.15
2022-11-02T08:10:32.596Z,0.40
2022-11-02T08:13:01.687Z,0.47
2022-11-02T08:15:28.103Z,0.40
2022-11-02T08:18:02.240Z,0.45
2022-11-02T08:20:29.182Z,0.40
2022-11-02T08:22:55.573Z,0.32
2022-11-02T08:25:21.975Z,0.30
2022-11-02T08:27:48.481Z,0.40
2022-11-02T08:30:14.885Z,0.40
2022-11-02T08:32:41.286Z,0.70
2022-11-02T08:35:07.879Z,0.50
2022-11-02T08:37:34.198Z,0.50
2022-11-02T08:40:00.534Z,1.15
2022-11-02T08:42:26.877Z,0.60
2022-11-02T08:44:53.279Z,0.40
2022-11-02T08:47:19.720Z,0.50
2022-11-02T08:49:47.150Z,0.70
2022-11-02T08:52:13.533Z,0.40
2022-11-02T08:54:39.863Z,0.32
2022-11-02T08:57:06.297Z,0.40
2022-11-02T08:59:32.636Z,0.70
2022-11-02T09:01:59.180Z,0.50
2022-11-02T09:04:25.710Z,1.10
2022-11-02T09:06:52.082Z,1.10
2022-11-02T09:09:18.407Z,0.47
2022-11-02T09:11:44.777Z,0.25
2022-11-02T09:14:11.251Z,1.05
2022-11-02T09:16:41.474Z,0.30
2022-11-02T09:19:08.275Z,0.45
2022-11-02T09:21:34.620Z,0.30
2022-11-02T09:24:01.114Z,0.32
2022-11-02T09:26:28.596Z,0.43
2022-11-02T09:28:55.010Z,0.55
2022-11-02T09:31:21.473Z,0.40
2022-11-02T09:33:47.816Z,0.40
2022-11-02T09:36:14.252Z,0.77
2022-11-02T09:38:40.686Z,0.93
2022-11-02T09:41:22.283Z,0.40
2022-11-02T09:44:07.562Z,0.50
2022-11-02T09:46:39.954Z,0.57
2022-11-02T09:49:11.754Z,0.20
2022-11-02T09:51:44.219Z,0.30
2022-11-02T09:54:17.336Z,0.73
2022-11-02T09:56:44.926Z,0.40
2022-11-02T09:59:15.661Z,0.30
2022-11-02T10:02:05.611Z,0.20
2022-11-02T10:05:10.705Z,0.30
2022-11-02T10:07:37.038Z,0.25
2022-11-02T10:10:06.335Z,0.20
2022-11-02T10:12:46.116Z,0.25
2022-11-02T10:15:17.129Z,0.25
2022-11-02T10:20:19.920Z,0.73
2022-11-02T10:22:47.077Z,0.25
2022-11-02T10:25:15.594Z,0.65
2022-11-02T10:27:43.811Z,0.68
2022-11-02T10:30:10.290Z,0.63
2022-11-02T10:32:37.696Z,0.30
2022-11-02T10:37:59.091Z,0.73
2022-11-02T10:40:43.305Z,0.77
2022-11-02T10:43:28.252Z,0.32
2022-11-02T10:46:17.736Z,0.50
2022-11-02T10:48:53.426Z,0.28
2022-11-02T10:51:21.960Z,0.28
2022-11-02T10:53:50.365Z,0.20
2022-11-02T10:56:30.695Z,0.20
2022-11-02T10:58:57.146Z,0.40
2022-11-02T11:01:23.771Z,0.43
2022-11-02T11:03:52.986Z,0.20
2022-11-02T11:06:19.852Z,0.30
2022-11-02T11:08:49.842Z,0.45
2022-11-02T11:11:27.144Z,0.30
2022-11-02T11:19:51.295Z,0.70
2022-11-02T11:22:25.214Z,0.45
2022-11-02T11:24:52.253Z,0.40
2022-11-02T11:27:19.979Z,0.50
2022-11-02T11:29:51.810Z,0.28
2022-11-02T11:32:20.585Z,0.25
2022-11-02T11:34:52.691Z,0.28
2022-11-02T11:37:19.293Z,0.30
2022-11-02T11:39:46.321Z,0.35
2022-11-02T11:42:15.132Z,0.20
2022-11-02T11:44:44.427Z,0.30
2022-11-02T11:47:12.593Z,0.30
2022-11-02T11:52:32.788Z,0.28
2022-11-02T11:55:00.872Z,0.52
2022-11-02T12:00:23.980Z,0.50
2022-11-02T12:03:02.915Z,0.32
2022-11-02T12:05:30.015Z,0.60
2022-11-02T12:07:57.157Z,0.30
2022-11-02T12:10:35.748Z,0.30
2022-11-02T12:13:02.191Z,0.40
2022-11-02T12:15:53.791Z,0.28
2022-11-02T12:18:20.121Z,0.50
2022-11-02T12:20:53.620Z,0.22
2022-11-02T12:23:19.977Z,0.30
2022-11-02T12:26:00.269Z,0.32
2022-11-02T12:28:28.107Z,0.30
2022-11-02T12:31:03.623Z,0.13
2022-11-02T12:33:56.463Z,0.50
2022-11-02T12:36:34.509Z,0.20
2022-11-02T12:39:04.624Z,0.30
2022-11-02T12:41:38.363Z,0.40
2022-11-02T12:44:22.196Z,0.50
2022-11-02T12:46:58.575Z,0.22
2022-11-02T12:49:36.931Z,0.43
2022-11-02T12:52:22.703Z,0.25
2022-11-02T12:54:54.473Z,0.30
2022-11-02T12:57:22.550Z,0.28
2022-11-02T12:59:54.886Z,0.20
2022-11-02T13:02:26.681Z,0.20
2022-11-02T13:04:58.994Z,0.50
2022-11-02T13:07:45.610Z,0.40
2022-11-02T13:10:23.827Z,0.13
2022-11-02T13:12:52.474Z,0.40
2022-11-02T13:15:20.659Z,0.10
2022-11-02T13:17:49.261Z,0.52
2022-11-02T13:20:17.318Z,0.22
2022-11-02T13:22:44.292Z,0.40
2022-11-02T13:25:16.848Z,0.25
2022-11-02T13:27:48.559Z,0.17
2022-11-02T13:30:16.178Z,0.40
2022-11-02T13:32:56.716Z,0.30
2022-11-02T13:35:23.090Z,0.45
2022-11-02T13:38:04.168Z,0.30
2022-11-02T13:40:34.115Z,0.10
2022-11-02T13:43:11.353Z,0.20
2022-11-02T13:45:42.473Z,0.30
2022-11-02T13:48:26.527Z,0.45
2022-11-02T13:50:56.658Z,0.20
2022-11-02T13:53:27.381Z,0.20
2022-11-02T13:56:14.146Z,0.40
2022-11-02T13:58:44.785Z,0.50
2022-11-02T14:01:11.398Z,0.10
2022-11-02T14:04:01.670Z,0.30
2022-11-02T14:06:30.203Z,0.60
2022-11-02T14:09:01.707Z,0.38
2022-11-02T14:11:33.796Z,0.30
2022-11-02T14:14:02.945Z,0.50
2022-11-02T14:16:48.150Z,0.20
2022-11-02T14:19:19.105Z,0.28
2022-11-02T14:21:49.840Z,0.68
2022-11-02T14:24:34.702Z,0.45
2022-11-02T14:27:01.938Z,0.52
2022-11-02T14:29:48.334Z,0.73
2022-11-02T14:32:20.944Z,0.32
2022-11-02T14:34:55.854Z,0.35
2022-11-02T14:37:31.578Z,0.28
2022-11-02T14:40:03.278Z,0.35
2022-11-02T14:42:51.109Z,0.20
2022-11-02T14:45:17.476Z,0.47
2022-11-02T14:47:44.196Z,0.45
2022-11-02T14:50:10.534Z,0.20
2022-11-02T14:52:37.268Z,0.75
2022-11-02T14:55:08.937Z,0.38
2022-11-02T14:57:40.070Z,0.45
2022-11-02T15:00:20.696Z,0.40
2022-11-02T15:02:47.775Z,0.20
2022-11-02T15:05:27.308Z,0.43
2022-11-02T15:07:58.272Z,0.40
2022-11-02T15:13:15.879Z,0.50
2022-11-02T15:15:43.336Z,0.47
2022-11-02T15:18:28.830Z,0.30
2022-11-02T15:21:10.423Z,0.25
2022-11-02T15:23:55.594Z,0.30
2022-11-02T15:26:29.334Z,0.30
2022-11-02T15:28:57.102Z,0.30
2022-11-02T15:31:26.290Z,0.30
2022-11-02T15:34:00.386Z,0.60
2022-11-02T15:36:26.856Z,0.50
2022-11-02T15:38:53.872Z,0.20
2022-11-02T15:41:38.770Z,0.30
2022-11-02T15:44:25.919Z,0.40
2022-11-02T15:47:01.171Z,0.30
2022-11-02T15:49:45.590Z,0.40
2022-11-02T15:52:11.963Z,0.30
2022-11-02T15:54:41.038Z,0.30
2022-11-02T15:57:16.144Z,0.50
2022-11-02T15:59:51.206Z,0.50
2022-11-02T16:02:27.821Z,0.60
2022-11-02T16:04:55.657Z,0.57
2022-11-02T16:07:24.016Z,0.40
2022-11-02T16:09:52.808Z,0.30
2022-11-02T16:12:20.463Z,0.40
2022-11-02T16:14:58.301Z,0.45
2022-11-02T16:17:26.080Z,0.30
2022-11-02T16:19:53.215Z,0.40
2022-11-02T16:22:24.865Z,0.50
2022-11-02T16:24:52.028Z,0.55
2022-11-02T16:27:18.548Z,0.68
2022-11-02T16:29:45.138Z,0.70
2022-11-02T16:32:11.912Z,0.45
2022-11-02T16:34:39.079Z,1.00
2022-11-02T16:37:10.056Z,0.60
2022-11-02T16:39:39.639Z,0.60
2022-11-02T16:42:17.159Z,0.50
2022-11-02T16:44:53.214Z,0.50
2022-11-02T16:47:28.012Z,0.50
2022-11-02T16:49:54.402Z,0.20
2022-11-02T16:52:22.359Z,0.47
2022-11-02T16:54:48.778Z,0.70
2022-11-02T16:57:15.085Z,0.38
2022-11-02T16:59:50.268Z,0.40
2022-11-02T17:02:16.788Z,0.30
2022-11-02T17:04:45.493Z,0.57
2022-11-02T17:07:14.053Z,0.55
2022-11-02T17:09:40.495Z,0.50
2022-11-02T17:12:10.072Z,0.40
2022-11-02T17:14:40.468Z,0.35
2022-11-02T17:17:08.090Z,0.50
2022-11-02T17:19:40.526Z,0.50
2022-11-02T17:22:26.874Z,0.50
2022-11-02T17:25:13.572Z,0.43
2022-11-02T17:27:42.425Z,0.60
2022-11-02T17:30:29.279Z,0.43
2022-11-02T17:32:59.482Z,0.50
2022-11-02T17:35:27.682Z,0.80
2022-11-02T17:37:54.332Z,0.80
2022-11-02T17:40:21.844Z,1.23
2022-11-02T17:43:01.016Z,0.70
2022-11-02T17:45:31.789Z,1.27
2022-11-02T17:47:59.040Z,0.80
2022-11-02T17:50:26.474Z,0.50
2022-11-02T17:52:53.289Z,0.50
2022-11-02T17:55:21.356Z,0.43
2022-11-02T17:57:48.047Z,0.60
2022-11-02T18:00:15.025Z,0.70
2022-11-02T18:02:41.425Z,0.77
2022-11-02T18:05:19.412Z,0.55
2022-11-02T18:07:45.830Z,0.60
2022-11-02T18:10:12.262Z,0.68
2022-11-02T18:12:38.594Z,0.60
2022-11-02T18:15:05.349Z,0.63
2022-11-02T18:17:34.889Z,0.75
2022-11-02T18:20:01.574Z,0.60
2022-11-02T18:22:28.027Z,0.85
2022-11-02T18:24:54.376Z,0.75
2022-11-02T18:27:22.577Z,0.70
2022-11-02T18:29:50.082Z,0.60
2022-11-02T18:32:16.497Z,0.63
2022-11-02T18:34:42.843Z,0.60
2022-11-02T18:37:09.385Z,0.60
2022-11-02T18:39:35.730Z,0.82
2022-11-02T18:42:02.117Z,0.63
2022-11-02T18:44:28.558Z,0.65
2022-11-02T18:46:57.605Z,1.10
2022-11-02T18:49:23.919Z,0.80
2022-11-02T18:51:50.315Z,0.40
2022-11-02T18:54:17.215Z,0.60
2022-11-02T18:56:43.964Z,0.80
2022-11-02T18:59:10.332Z,0.65
2022-11-02T19:01:36.973Z,1.17
2022-11-02T19:04:03.549Z,0.70
2022-11-02T19:06:49.349Z,0.80
2022-11-02T19:09:18.809Z,1.08
2022-11-02T19:11:46.668Z,0.90
2022-11-02T19:14:13.002Z,0.70
2022-11-02T19:16:39.426Z,0.85
2022-11-02T19:19:05.850Z,0.80
2022-11-02T19:21:32.255Z,0.82
2022-11-02T19:23:58.603Z,0.80
2022-11-02T19:28:58.790Z,1.20
2022-11-02T19:31:26.504Z,0.80
2022-11-02T19:33:52.861Z,1.00
2022-11-02T19:36:19.236Z,0.98
2022-11-02T19:38:45.617Z,1.00
2022-11-02T19:41:15.657Z,1.23
2022-11-02T19:43:43.069Z,1.20
2022-11-02T19:46:16.553Z,0.93
2022-11-02T19:48:42.922Z,0.85
2022-11-02T19:51:15.909Z,1.25
2022-11-02T19:53:46.459Z,0.95
2022-11-02T19:56:13.768Z,1.02
2022-11-02T19:58:40.938Z,1.27
2022-11-02T20:01:14.537Z,1.00
2022-11-02T20:03:41.122Z,0.90
2022-11-02T20:06:08.601Z,0.80
2022-11-02T20:08:35.165Z,1.20
2022-11-02T20:11:02.304Z,1.00
2022-11-02T20:13:28.694Z,1.10
2022-11-02T20:15:55.619Z,1.35
2022-11-02T20:18:22.331Z,1.20
2022-11-02T20:20:49.088Z,1.20
2022-11-02T20:23:15.465Z,1.20
2022-11-02T20:25:41.934Z,1.33
2022-11-02T20:28:08.500Z,1.10
2022-11-02T20:30:35.209Z,1.20
2022-11-02T20:33:01.610Z,1.20
2022-11-02T20:35:28.274Z,1.15
2022-11-02T20:37:54.893Z,1.60
2022-11-02T20:40:21.257Z,1.20
2022-11-02T20:42:50.765Z,1.33
2022-11-02T20:45:17.975Z,1.08
2022-11-02T20:47:44.379Z,1.33
2022-11-02T20:50:15.790Z,1.88
2022-11-02T20:52:44.196Z,1.20
2022-11-02T20:55:10.531Z,2.30
2022-11-02T20:57:37.742Z,2.58
2022-11-02T21:00:04.874Z,1.95
2022-11-02T21:02:31.290Z,1.80
2022-11-02T21:04:57.779Z,1.60
2022-11-02T21:07:24.250Z,1.58
2022-11-02T21:09:50.683Z,1.42
2022-11-02T21:12:35.888Z,1.90
2022-11-02T21:15:02.511Z,1.65
2022-11-02T21:17:28.870Z,1.60
2022-11-02T21:19:58.257Z,1.80
2022-11-02T21:22:34.440Z,2.13
2022-11-02T21:25:00.836Z,2.58
2022-11-02T21:27:27.312Z,1.90
2022-11-02T21:29:53.644Z,1.90
2022-11-02T21:32:19.973Z,1.45
2022-11-02T21:34:46.351Z,1.73
2022-11-02T21:37:12.728Z,1.88
2022-11-02T21:39:39.053Z,1.17
2022-11-02T21:42:05.593Z,1.80
2022-11-02T21:44:31.995Z,1.45
2022-11-02T21:46:58.415Z,1.20
2022-11-02T21:49:24.780Z,1.50
2022-11-02T21:51:51.317Z,1.50
2022-11-02T21:54:17.772Z,1.88
2022-11-02T21:56:46.308Z,1.30
2022-11-02T21:59:12.716Z,1.80
2022-11-02T22:01:45.704Z,1.30
2022-11-02T22:04:13.604Z,1.65
2022-11-02T22:06:40.087Z,1.20
2022-11-02T22:09:07.238Z,1.17
2022-11-02T22:11:33.770Z,1.80
2022-11-02T22:14:00.794Z,1.52
2022-11-02T22:16:32.020Z,1.52
2022-11-02T22:18:59.856Z,1.30
2022-11-02T22:21:27.408Z,1.85
2022-11-02T22:23:54.213Z,1.20
2022-11-02T22:26:21.771Z,1.50
2022-11-02T22:28:48.293Z,1.55
2022-11-02T22:31:22.110Z,1.38
2022-11-02T22:33:50.085Z,1.25
2022-11-02T22:36:18.149Z,1.50
2022-11-02T22:38:53.984Z,1.40
2022-11-02T22:41:22.290Z,1.60
2022-11-02T22:43:50.031Z,1.30
2022-11-02T22:46:16.628Z,1.20
2022-11-02T22:48:43.036Z,1.20
2022-11-02T22:51:09.682Z,1.25
2022-11-02T22:53:36.053Z,1.50
2022-11-02T22:56:03.924Z,1.90
2022-11-02T22:58:31.520Z,1.40
2022-11-02T23:00:58.001Z,1.27
2022-11-02T23:03:24.431Z,0.88
2022-11-02T23:05:50.971Z,2.17
2022-11-02T23:08:18.045Z,1.55
2022-11-02T23:11:03.469Z,1.50
2022-11-02T23:13:29.885Z,1.40
2022-11-02T23:16:21.071Z,1.40
2022-11-02T23:19:10.080Z,1.45
2022-11-02T23:21:37.385Z,1.42
2022-11-02T23:24:22.489Z,1.15
2022-11-02T23:26:49.681Z,1.50
2022-11-02T23:29:34.971Z,1.20
2022-11-02T23:32:20.116Z,1.58
2022-11-02T23:35:05.335Z,1.15
2022-11-02T23:37:31.738Z,1.48
2022-11-02T23:39:58.048Z,1.27
2022-11-02T23:42:24.401Z,1.42
2022-11-02T23:44:50.753Z,1.13
2022-11-02T23:47:17.474Z,1.13
2022-11-02T23:49:44.118Z,1.05
2022-11-02T23:52:30.652Z,1.30
2022-11-02T23:55:15.655Z,1.33
2022-11-02T23:57:42.050Z,1.08
